createdAt,value
2018-08-19T00:00:15.199Z,16.05
2018-08-19T00:01:15.176Z,16.00
2018-08-19T00:02:15.167Z,15.96
2018-08-19T00:03:15.201Z,15.96
2018-08-19T00:04:15.141Z,16.02
2018-08-19T00:05:15.135Z,15.92
2018-08-19T00:06:15.131Z,15.96
2018-08-19T00:07:15.113Z,15.92
2018-08-19T00:08:15.163Z,15.96
2018-08-19T00:09:15.099Z,15.87
2018-08-19T00:10:15.084Z,15.98
2018-08-19T00:11:15.085Z,15.94
2018-08-19T00:12:15.072Z,15.85
2018-08-19T00:13:15.091Z,15.84
2018-08-19T00:14:15.072Z,15.88
2018-08-19T00:15:15.029Z,15.85
2018-08-19T00:16:15.017Z,15.81
2018-08-19T00:17:15.008Z,15.81
2018-08-19T00:18:14.991Z,15.75
2018-08-19T00:19:15.024Z,15.75
2018-08-19T00:20:15.002Z,15.83
2018-08-19T00:21:14.964Z,15.76
2018-08-19T00:22:14.947Z,15.78
2018-08-19T00:23:14.939Z,15.80
2018-08-19T00:24:14.963Z,15.88
2018-08-19T00:25:14.919Z,15.90
2018-08-19T00:26:14.909Z,15.87
2018-08-19T00:27:14.892Z,15.87
2018-08-19T00:28:14.935Z,15.96
2018-08-19T00:29:14.880Z,15.94
2018-08-19T00:30:14.855Z,15.92
2018-08-19T00:31:14.859Z,15.98
2018-08-19T00:32:14.835Z,15.98
2018-08-19T00:33:14.853Z,15.94
2018-08-19T00:34:14.857Z,16.06
2018-08-19T00:35:14.803Z,16.08
2018-08-19T00:36:14.797Z,16.03
2018-08-19T00:37:14.778Z,16.13
2018-08-19T00:38:14.811Z,16.09
2018-08-19T00:39:14.795Z,16.13
2018-08-19T00:40:14.742Z,16.16
2018-08-19T00:41:14.733Z,16.21
2018-08-19T00:42:14.723Z,16.24
2018-08-19T00:43:14.705Z,16.22
2018-08-19T00:44:14.722Z,16.31
2018-08-19T00:45:14.687Z,16.22
2018-08-19T00:46:14.676Z,16.25
2018-08-19T00:47:14.660Z,16.28
2018-08-19T00:48:14.687Z,16.21
2018-08-19T00:49:14.672Z,16.13
2018-08-19T00:50:14.625Z,16.16
2018-08-19T00:51:14.619Z,16.09
2018-08-19T00:52:14.623Z,15.98
2018-08-19T00:53:23.604Z,15.98
2018-08-19T00:54:14.611Z,15.91
2018-08-19T00:55:14.568Z,15.92
2018-08-19T00:56:23.671Z,15.87
2018-08-19T00:57:14.545Z,15.81
2018-08-19T00:58:14.539Z,15.69
2018-08-19T00:59:14.525Z,15.75
2018-08-19T01:00:14.519Z,15.73
2018-08-19T01:01:14.547Z,15.62
2018-08-19T01:02:22.167Z,15.67
2018-08-19T01:03:14.487Z,15.75
2018-08-19T01:04:14.478Z,15.75
2018-08-19T01:05:22.200Z,15.80
2018-08-19T01:06:14.508Z,15.78
2018-08-19T01:07:14.445Z,15.81
2018-08-19T01:08:14.433Z,15.70
2018-08-19T01:09:14.430Z,15.83
2018-08-19T01:10:14.415Z,15.85
2018-08-19T01:11:14.448Z,15.75
2018-08-19T01:12:14.385Z,15.78
2018-08-19T01:13:14.384Z,15.78
2018-08-19T01:14:14.367Z,15.78
2018-08-19T01:15:14.358Z,15.90
2018-08-19T01:16:14.391Z,15.99
2018-08-19T01:17:22.234Z,15.94
2018-08-19T01:18:14.325Z,15.91
2018-08-19T01:19:14.308Z,15.96
2018-08-19T01:20:22.272Z,15.98
2018-08-19T01:21:14.312Z,15.99
2018-08-19T01:22:14.320Z,16.06
2018-08-19T01:23:14.264Z,16.12
2018-08-19T01:24:14.252Z,16.13
2018-08-19T01:25:14.244Z,16.13
2018-08-19T01:26:14.229Z,16.09
2018-08-19T01:27:14.254Z,16.06
2018-08-19T01:28:14.240Z,16.13
2018-08-19T01:29:14.205Z,16.08
2018-08-19T01:30:14.180Z,15.99
2018-08-19T01:31:14.188Z,16.03
2018-08-19T01:32:14.151Z,16.08
2018-08-19T01:33:14.196Z,16.06
2018-08-19T01:34:14.131Z,16.13
2018-08-19T01:35:14.119Z,16.13
2018-08-19T01:36:14.109Z,16.13
2018-08-19T01:37:14.099Z,16.10
2018-08-19T01:38:14.130Z,16.12
2018-08-19T01:39:14.083Z,16.16
2018-08-19T01:40:14.059Z,16.21
2018-08-19T01:41:14.045Z,16.17
2018-08-19T01:42:14.044Z,16.17
2018-08-19T01:43:14.052Z,16.18
2018-08-19T01:44:14.061Z,16.22
2018-08-19T01:45:14.005Z,16.29
2018-08-19T01:46:14.029Z,16.25
2018-08-19T01:47:13.983Z,16.29
2018-08-19T01:48:13.981Z,16.09
2018-08-19T01:49:13.989Z,16.13
2018-08-19T01:50:13.961Z,16.22
2018-08-19T01:51:13.945Z,16.21
2018-08-19T01:52:13.929Z,16.13
2018-08-19T01:53:13.915Z,16.17
2018-08-19T01:54:13.935Z,16.10
2018-08-19T01:55:13.891Z,16.02
2018-08-19T01:56:23.324Z,16.00
2018-08-19T01:57:13.875Z,15.94
2018-08-19T01:58:13.863Z,16.05
2018-08-19T01:59:13.853Z,15.99
2018-08-19T02:00:13.869Z,16.02
2018-08-19T02:01:13.832Z,15.92
2018-08-19T02:02:13.824Z,16.03
2018-08-19T02:03:13.809Z,15.92
2018-08-19T02:04:13.807Z,15.92
2018-08-19T02:05:22.853Z,15.92
2018-08-19T02:06:13.777Z,15.91
2018-08-19T02:07:13.767Z,15.83
2018-08-19T02:08:21.365Z,15.76
2018-08-19T02:09:13.743Z,15.84
2018-08-19T02:10:13.734Z,15.73
2018-08-19T02:11:23.906Z,15.75
2018-08-19T02:12:13.714Z,15.78
2018-08-19T02:13:13.710Z,15.70
2018-08-19T02:14:21.426Z,15.80
2018-08-19T02:15:13.678Z,15.73
2018-08-19T02:16:13.697Z,15.63
2018-08-19T02:17:21.469Z,15.75
2018-08-19T02:18:13.646Z,15.75
2018-08-19T02:19:13.632Z,15.73
2018-08-19T02:20:13.622Z,15.65
2018-08-19T02:21:13.644Z,15.75
2018-08-19T02:22:13.597Z,15.67
2018-08-19T02:23:21.483Z,15.67
2018-08-19T02:24:13.573Z,15.67
2018-08-19T02:25:13.554Z,15.62
2018-08-19T02:26:23.041Z,15.65
2018-08-19T02:27:13.539Z,15.60
2018-08-19T02:28:13.517Z,15.62
2018-08-19T02:29:22.060Z,15.70
2018-08-19T02:30:13.501Z,15.67
2018-08-19T02:31:13.517Z,15.75
2018-08-19T02:32:21.099Z,15.63
2018-08-19T02:33:13.474Z,15.75
2018-08-19T02:34:13.453Z,15.80
2018-08-19T02:35:21.131Z,15.76
2018-08-19T02:36:13.481Z,15.73
2018-08-19T02:37:13.419Z,15.73
2018-08-19T02:38:21.171Z,15.80
2018-08-19T02:39:13.401Z,15.75
2018-08-19T02:40:13.387Z,15.73
2018-08-19T02:41:13.403Z,15.65
2018-08-19T02:42:13.374Z,15.69
2018-08-19T02:43:13.355Z,15.59
2018-08-19T02:44:21.223Z,15.63
2018-08-19T02:45:13.336Z,15.62
2018-08-19T02:46:13.368Z,15.69
2018-08-19T02:47:22.260Z,15.54
2018-08-19T02:48:13.320Z,15.65
2018-08-19T02:49:13.294Z,15.60
2018-08-19T02:50:13.293Z,15.55
2018-08-19T02:51:13.303Z,15.60
2018-08-19T02:52:13.266Z,15.57
2018-08-19T02:53:20.785Z,15.60
2018-08-19T02:54:13.241Z,15.57
2018-08-19T02:55:13.229Z,15.67
2018-08-19T02:56:22.330Z,15.59
2018-08-19T02:57:13.207Z,15.54
2018-08-19T02:58:13.194Z,15.59
2018-08-19T02:59:13.183Z,15.60
2018-08-19T03:00:13.173Z,15.48
2018-08-19T03:01:13.161Z,15.54
2018-08-19T03:02:22.364Z,15.51
2018-08-19T03:03:13.147Z,15.54
2018-08-19T03:04:13.129Z,15.50
2018-08-19T03:05:20.863Z,15.43
2018-08-19T03:06:13.100Z,15.39
2018-08-19T03:07:13.116Z,15.45
2018-08-19T03:08:22.409Z,15.44
2018-08-19T03:09:13.094Z,15.39
2018-08-19T03:10:13.093Z,15.48
2018-08-19T03:11:20.921Z,15.43
2018-08-19T03:12:13.034Z,15.29
2018-08-19T03:13:13.020Z,15.37
2018-08-19T03:14:22.505Z,15.33
2018-08-19T03:15:13.040Z,15.30
2018-08-19T03:16:12.989Z,15.29
2018-08-19T03:17:13.013Z,15.25
2018-08-19T03:18:12.970Z,15.35
2018-08-19T03:19:12.995Z,15.27
2018-08-19T03:20:12.950Z,15.19
2018-08-19T03:21:12.931Z,15.25
2018-08-19T03:22:12.981Z,15.15
2018-08-19T03:23:12.915Z,15.15
2018-08-19T03:24:12.895Z,15.08
2018-08-19T03:25:12.895Z,14.99
2018-08-19T03:26:12.880Z,15.04
2018-08-19T03:27:12.921Z,14.93
2018-08-19T03:28:12.853Z,14.96
2018-08-19T03:29:12.858Z,14.93
2018-08-19T03:30:12.823Z,14.94
2018-08-19T03:31:12.824Z,14.90
2018-08-19T03:32:12.851Z,14.97
2018-08-19T03:33:12.792Z,14.89
2018-08-19T03:34:12.783Z,14.81
2018-08-19T03:35:12.775Z,14.81
2018-08-19T03:36:12.757Z,14.87
2018-08-19T03:37:12.789Z,14.89
2018-08-19T03:38:12.774Z,14.85
2018-08-19T03:39:12.737Z,14.82
2018-08-19T03:40:12.717Z,14.78
2018-08-19T03:41:12.701Z,14.78
2018-08-19T03:42:12.693Z,14.70
2018-08-19T03:43:12.713Z,14.77
2018-08-19T03:44:12.715Z,14.74
2018-08-19T03:45:12.658Z,14.67
2018-08-19T03:46:12.653Z,14.78
2018-08-19T03:47:12.639Z,14.74
2018-08-19T03:48:12.621Z,14.66
2018-08-19T03:49:12.653Z,14.73
2018-08-19T03:50:12.604Z,14.62
2018-08-19T03:51:12.594Z,14.61
2018-08-19T03:52:12.589Z,14.61
2018-08-19T03:53:12.569Z,14.51
2018-08-19T03:54:12.603Z,14.61
2018-08-19T03:55:12.547Z,14.67
2018-08-19T03:56:12.539Z,14.59
2018-08-19T03:57:12.535Z,14.63
2018-08-19T03:58:12.510Z,14.61
2018-08-19T03:59:12.557Z,14.63
2018-08-19T04:00:12.487Z,14.66
2018-08-19T04:01:12.487Z,14.66
2018-08-19T04:02:12.480Z,14.68
2018-08-19T04:03:12.468Z,14.66
2018-08-19T04:04:12.500Z,14.62
2018-08-19T04:05:12.499Z,14.63
2018-08-19T04:06:12.433Z,14.63
2018-08-19T04:07:12.423Z,14.68
2018-08-19T04:08:12.415Z,14.81
2018-08-19T04:09:12.405Z,14.77
2018-08-19T04:10:12.427Z,14.67
2018-08-19T04:11:12.378Z,14.74
2018-08-19T04:12:12.369Z,14.71
2018-08-19T04:13:12.359Z,14.62
2018-08-19T04:14:12.351Z,14.70
2018-08-19T04:15:12.382Z,14.66
2018-08-19T04:16:12.323Z,14.66
2018-08-19T04:17:12.317Z,14.67
2018-08-19T04:18:12.310Z,14.62
2018-08-19T04:19:12.287Z,14.70
2018-08-19T04:20:12.319Z,14.67
2018-08-19T04:21:12.263Z,14.63
2018-08-19T04:22:12.295Z,14.68
2018-08-19T04:23:12.243Z,14.73
2018-08-19T04:24:12.265Z,14.77
2018-08-19T04:25:12.229Z,14.77
2018-08-19T04:26:12.255Z,14.68
2018-08-19T04:27:12.199Z,14.74
2018-08-19T04:28:12.189Z,14.74
2018-08-19T04:29:12.179Z,14.73
2018-08-19T04:30:12.167Z,14.71
2018-08-19T04:31:12.205Z,14.63
2018-08-19T04:32:12.139Z,14.71
2018-08-19T04:33:12.126Z,14.70
2018-08-19T04:34:12.116Z,14.79
2018-08-19T04:35:12.109Z,14.82
2018-08-19T04:36:12.149Z,14.85
2018-08-19T04:37:12.087Z,14.86
2018-08-19T04:38:12.065Z,14.86
2018-08-19T04:39:12.065Z,14.89
2018-08-19T04:40:12.048Z,14.85
2018-08-19T04:41:12.073Z,14.93
2018-08-19T04:42:12.092Z,14.93
2018-08-19T04:43:12.011Z,14.90
2018-08-19T04:44:12.009Z,14.93
2018-08-19T04:45:11.991Z,14.96
2018-08-19T04:46:11.982Z,15.08
2018-08-19T04:47:12.013Z,15.04
2018-08-19T04:48:11.960Z,15.00
2018-08-19T04:49:11.949Z,15.12
2018-08-19T04:50:11.938Z,15.10
2018-08-19T04:51:11.926Z,15.14
2018-08-19T04:52:12.002Z,15.14
2018-08-19T04:53:11.907Z,15.14
2018-08-19T04:54:11.893Z,15.17
2018-08-19T04:55:11.884Z,15.22
2018-08-19T04:56:11.870Z,15.22
2018-08-19T04:57:11.899Z,15.25
2018-08-19T04:58:11.885Z,15.29
2018-08-19T04:59:11.848Z,15.22
2018-08-19T05:00:11.823Z,15.30
2018-08-19T05:01:11.831Z,15.30
2018-08-19T05:02:11.878Z,15.33
2018-08-19T05:03:11.832Z,15.37
2018-08-19T05:04:11.778Z,15.37
2018-08-19T05:05:11.790Z,15.36
2018-08-19T05:06:11.781Z,15.44
2018-08-19T05:07:11.759Z,15.45
2018-08-19T05:08:25.186Z,15.50
2018-08-19T05:09:11.737Z,15.41
2018-08-19T05:10:11.723Z,15.44
2018-08-19T05:11:11.715Z,15.48
2018-08-19T05:12:11.697Z,15.44
2018-08-19T05:13:11.743Z,15.41
2018-08-19T05:14:19.557Z,15.47
2018-08-19T05:15:11.673Z,15.57
2018-08-19T05:16:11.661Z,15.63
2018-08-19T05:17:11.653Z,15.60
2018-08-19T05:18:11.667Z,15.60
2018-08-19T05:19:11.625Z,15.69
2018-08-19T05:20:11.607Z,15.65
2018-08-19T05:21:11.599Z,15.62
2018-08-19T05:22:11.597Z,15.75
2018-08-19T05:23:11.624Z,15.73
2018-08-19T05:24:11.567Z,15.75
2018-08-19T05:25:11.553Z,15.84
2018-08-19T05:26:11.554Z,15.90
2018-08-19T05:27:11.530Z,15.90
2018-08-19T05:28:11.582Z,15.87
2018-08-19T05:29:11.545Z,15.98
2018-08-19T05:30:11.495Z,15.99
2018-08-19T05:31:11.487Z,15.99
2018-08-19T05:32:19.577Z,16.06
2018-08-19T05:33:11.458Z,16.16
2018-08-19T05:34:11.481Z,16.16
2018-08-19T05:35:11.459Z,16.21
2018-08-19T05:36:11.418Z,16.18
2018-08-19T05:37:11.452Z,16.10
2018-08-19T05:38:19.107Z,16.16
2018-08-19T05:39:11.384Z,16.21
2018-08-19T05:40:11.382Z,16.24
2018-08-19T05:41:11.361Z,16.26
2018-08-19T05:42:11.387Z,16.21
2018-08-19T05:43:11.343Z,16.24
2018-08-19T05:44:19.145Z,16.24
2018-08-19T05:45:11.378Z,16.24
2018-08-19T05:46:11.312Z,16.29
2018-08-19T05:47:11.338Z,16.26
2018-08-19T05:48:11.285Z,16.22
2018-08-19T05:49:11.272Z,16.24
2018-08-19T05:50:20.691Z,16.37
2018-08-19T05:51:11.277Z,16.37
2018-08-19T05:52:11.242Z,16.37
2018-08-19T05:53:19.224Z,16.36
2018-08-19T05:54:11.253Z,16.44
2018-08-19T05:55:11.215Z,16.49
2018-08-19T05:56:20.281Z,16.55
2018-08-19T05:57:11.190Z,16.55
2018-08-19T05:58:11.185Z,16.64
2018-08-19T05:59:20.315Z,16.69
2018-08-19T06:00:11.162Z,16.84
2018-08-19T06:01:11.206Z,16.77
2018-08-19T06:02:18.832Z,16.84
2018-08-19T06:03:11.128Z,16.86
2018-08-19T06:04:11.219Z,16.92
2018-08-19T06:05:18.861Z,16.98
2018-08-19T06:06:11.096Z,17.05
2018-08-19T06:07:11.085Z,17.19
2018-08-19T06:08:18.903Z,17.16
2018-08-19T06:09:11.091Z,17.17
2018-08-19T06:10:11.046Z,17.16
2018-08-19T06:11:18.052Z,17.39
2018-08-19T06:12:11.021Z,17.35
2018-08-19T06:13:11.013Z,17.49
2018-08-19T06:14:20.487Z,17.54
2018-08-19T06:15:10.987Z,17.63
2018-08-19T06:16:10.971Z,17.60
2018-08-19T06:17:10.956Z,17.75
2018-08-19T06:18:10.950Z,17.84
2018-08-19T06:19:10.978Z,18.05
2018-08-19T06:20:10.922Z,18.41
2018-08-19T06:21:10.912Z,18.91
2018-08-19T06:22:10.910Z,19.30
2018-08-19T06:23:10.915Z,19.87
2018-08-19T06:24:10.929Z,20.34
2018-08-19T06:25:10.877Z,20.82
2018-08-19T06:26:10.863Z,21.25
2018-08-19T06:27:10.845Z,21.53
2018-08-19T06:28:10.838Z,21.56
2018-08-19T06:29:10.843Z,21.53
2018-08-19T06:30:10.808Z,21.51
2018-08-19T06:31:10.904Z,21.47
2018-08-19T06:32:10.797Z,21.32
2018-08-19T06:33:10.783Z,21.50
2018-08-19T06:34:10.807Z,21.50
2018-08-19T06:35:10.768Z,21.78
2018-08-19T06:36:10.759Z,22.21
2018-08-19T06:37:10.733Z,22.30
2018-08-19T06:38:10.721Z,22.10
2018-08-19T06:39:10.743Z,22.41
2018-08-19T06:40:10.698Z,22.61
2018-08-19T06:41:10.695Z,22.77
2018-08-19T06:42:10.682Z,22.93
2018-08-19T06:43:10.759Z,23.14
2018-08-19T06:44:10.693Z,23.08
2018-08-19T06:45:10.703Z,23.37
2018-08-19T06:46:10.643Z,22.76
2018-08-19T06:47:10.625Z,22.59
2018-08-19T06:48:10.621Z,22.70
2018-08-19T06:49:10.609Z,23.13
2018-08-19T06:50:10.629Z,23.58
2018-08-19T06:51:10.616Z,24.09
2018-08-19T06:52:10.581Z,24.24
2018-08-19T06:53:10.569Z,24.09
2018-08-19T06:54:10.557Z,24.24
2018-08-19T06:55:10.579Z,24.22
2018-08-19T06:56:10.561Z,24.21
2018-08-19T06:57:10.531Z,24.44
2018-08-19T06:58:10.517Z,24.62
2018-08-19T06:59:10.505Z,24.68
2018-08-19T07:00:10.500Z,24.68
2018-08-19T07:01:10.501Z,25.03
2018-08-19T07:02:10.461Z,23.96
2018-08-19T07:03:10.497Z,24.16
2018-08-19T07:04:10.437Z,24.55
2018-08-19T07:05:19.993Z,24.85
2018-08-19T07:06:10.446Z,24.41
2018-08-19T07:07:10.397Z,24.22
2018-08-19T07:08:18.022Z,23.62
2018-08-19T07:09:10.385Z,23.82
2018-08-19T07:10:10.371Z,23.94
2018-08-19T07:11:19.609Z,23.16
2018-08-19T07:12:10.360Z,22.56
2018-08-19T07:13:10.344Z,22.31
2018-08-19T07:14:18.122Z,21.96
2018-08-19T07:15:10.355Z,21.99
2018-08-19T07:16:10.349Z,22.01
2018-08-19T07:17:10.309Z,21.88
2018-08-19T07:18:10.301Z,21.59
2018-08-19T07:19:10.280Z,21.48
2018-08-19T07:20:10.270Z,21.23
2018-08-19T07:21:10.300Z,21.41
2018-08-19T07:22:10.242Z,22.25
2018-08-19T07:23:10.235Z,23.11
2018-08-19T07:24:10.251Z,23.49
2018-08-19T07:25:10.205Z,23.55
2018-08-19T07:26:19.755Z,23.42
2018-08-19T07:27:10.190Z,23.63
2018-08-19T07:28:10.183Z,23.69
2018-08-19T07:29:10.160Z,23.44
2018-08-19T07:30:10.160Z,23.16
2018-08-19T07:31:10.143Z,22.70
2018-08-19T07:32:10.160Z,22.36
2018-08-19T07:33:10.125Z,22.31
2018-08-19T07:34:10.113Z,22.46
2018-08-19T07:35:10.105Z,22.33
2018-08-19T07:36:10.091Z,22.33
2018-08-19T07:37:10.225Z,22.37
2018-08-19T07:38:10.074Z,22.34
2018-08-19T07:39:10.051Z,22.41
2018-08-19T07:40:10.057Z,22.26
2018-08-19T07:41:10.023Z,22.12
2018-08-19T07:42:10.091Z,21.85
2018-08-19T07:43:10.007Z,22.03
2018-08-19T07:44:10.011Z,21.97
2018-08-19T07:45:09.993Z,22.37
2018-08-19T07:46:10.015Z,22.56
2018-08-19T07:47:10.005Z,22.26
2018-08-19T07:48:09.950Z,22.07
2018-08-19T07:49:09.951Z,22.55
2018-08-19T07:50:18.676Z,22.31
2018-08-19T07:51:09.926Z,22.55
2018-08-19T07:52:09.961Z,22.41
2018-08-19T07:53:09.888Z,22.61
2018-08-19T07:54:09.900Z,22.44
2018-08-19T07:55:09.879Z,22.30
2018-08-19T07:56:17.711Z,22.21
2018-08-19T07:57:09.883Z,22.19
2018-08-19T07:58:09.833Z,22.15
2018-08-19T07:59:09.822Z,22.00
2018-08-19T08:00:09.820Z,21.91
2018-08-19T08:01:09.806Z,21.81
2018-08-19T08:02:09.877Z,22.03
2018-08-19T08:03:09.828Z,21.94
2018-08-19T08:04:09.808Z,22.18
2018-08-19T08:05:09.762Z,22.33
2018-08-19T08:06:09.750Z,22.38
2018-08-19T08:07:09.755Z,22.46
2018-08-19T08:08:09.784Z,22.30
2018-08-19T08:09:09.750Z,22.30
2018-08-19T08:10:09.707Z,22.44
2018-08-19T08:11:09.696Z,22.46
2018-08-19T08:12:09.695Z,22.31
2018-08-19T08:13:09.711Z,22.28
2018-08-19T08:14:09.671Z,22.16
2018-08-19T08:15:09.923Z,21.92
2018-08-19T08:16:09.650Z,21.96
2018-08-19T08:17:09.641Z,21.91
2018-08-19T08:18:09.710Z,21.92
2018-08-19T08:19:09.612Z,21.96
2018-08-19T08:20:09.606Z,21.92
2018-08-19T08:21:09.663Z,21.96
2018-08-19T08:22:09.583Z,22.14
2018-08-19T08:23:09.605Z,22.31
2018-08-19T08:24:09.569Z,22.61
2018-08-19T08:25:09.545Z,22.61
2018-08-19T08:26:09.536Z,22.49
2018-08-19T08:27:09.527Z,22.33
2018-08-19T08:28:09.553Z,22.34
2018-08-19T08:29:09.569Z,22.16
2018-08-19T08:30:09.491Z,22.04
2018-08-19T08:31:09.509Z,22.23
2018-08-19T08:32:09.483Z,22.47
2018-08-19T08:33:09.498Z,22.65
2018-08-19T08:34:09.503Z,22.76
2018-08-19T08:35:09.443Z,22.88
2018-08-19T08:36:09.439Z,23.14
2018-08-19T08:37:09.410Z,23.16
2018-08-19T08:38:09.434Z,22.91
2018-08-19T08:39:09.430Z,22.81
2018-08-19T08:40:09.369Z,22.58
2018-08-19T08:41:09.356Z,22.46
2018-08-19T08:42:09.406Z,22.47
2018-08-19T08:43:09.337Z,22.41
2018-08-19T08:44:09.395Z,22.41
2018-08-19T08:45:09.310Z,22.56
2018-08-19T08:46:09.306Z,22.84
2018-08-19T08:47:09.305Z,22.84
2018-08-19T08:48:09.289Z,22.76
2018-08-19T08:49:09.306Z,22.88
2018-08-19T08:50:09.264Z,22.92
2018-08-19T08:51:09.249Z,22.98
2018-08-19T08:52:09.305Z,23.07
2018-08-19T08:53:09.253Z,23.04
2018-08-19T08:54:09.248Z,22.96
2018-08-19T08:55:09.251Z,22.92
2018-08-19T08:56:09.205Z,22.76
2018-08-19T08:57:09.215Z,22.74
2018-08-19T08:58:09.191Z,22.74
2018-08-19T08:59:09.278Z,22.91
2018-08-19T09:00:09.173Z,22.89
2018-08-19T09:01:09.140Z,22.95
2018-08-19T09:02:09.137Z,23.07
2018-08-19T09:03:09.139Z,23.17
2018-08-19T09:04:09.181Z,22.95
2018-08-19T09:05:09.158Z,22.86
2018-08-19T09:06:09.125Z,22.98
2018-08-19T09:07:09.135Z,23.17
2018-08-19T09:08:09.111Z,23.23
2018-08-19T09:09:09.072Z,23.10
2018-08-19T09:10:09.089Z,23.14
2018-08-19T09:11:09.035Z,23.17
2018-08-19T09:12:09.089Z,23.42
2018-08-19T09:13:09.028Z,23.70
2018-08-19T09:14:09.051Z,23.94
2018-08-19T09:15:08.997Z,24.16
2018-08-19T09:16:09.007Z,24.47
2018-08-19T09:17:08.971Z,25.36
2018-08-19T09:18:08.967Z,25.46
2018-08-19T09:19:08.933Z,25.15
2018-08-19T09:20:09.066Z,25.00
2018-08-19T09:21:08.999Z,24.99
2018-08-19T09:22:16.741Z,24.85
2018-08-19T09:23:09.073Z,24.65
2018-08-19T09:24:08.916Z,24.99
2018-08-19T09:25:08.874Z,24.94
2018-08-19T09:26:08.901Z,24.86
2018-08-19T09:27:08.863Z,25.04
2018-08-19T09:28:08.838Z,25.07
2018-08-19T09:29:08.909Z,25.76
2018-08-19T09:30:08.845Z,26.44
2018-08-19T09:31:16.771Z,25.83
2018-08-19T09:32:08.795Z,25.62
2018-08-19T09:33:08.785Z,25.22
2018-08-19T09:34:08.811Z,25.01
2018-08-19T09:35:08.769Z,25.04
2018-08-19T09:36:08.790Z,26.19
2018-08-19T09:37:08.744Z,25.85
2018-08-19T09:38:08.747Z,25.41
2018-08-19T09:39:08.745Z,24.99
2018-08-19T09:40:08.757Z,24.97
2018-08-19T09:41:08.723Z,25.01
2018-08-19T09:42:08.721Z,25.19
2018-08-19T09:43:08.704Z,25.18
2018-08-19T09:44:08.678Z,24.78
2018-08-19T09:45:08.723Z,24.28
2018-08-19T09:46:17.841Z,24.37
2018-08-19T09:47:08.691Z,24.16
2018-08-19T09:48:08.667Z,24.48
2018-08-19T09:49:08.615Z,24.68
2018-08-19T09:50:08.609Z,24.68
2018-08-19T09:51:08.633Z,24.28
2018-08-19T09:52:16.362Z,24.31
2018-08-19T09:53:08.603Z,24.34
2018-08-19T09:54:08.616Z,24.63
2018-08-19T09:55:08.599Z,24.34
2018-08-19T09:56:08.548Z,24.25
2018-08-19T09:57:08.541Z,24.16
2018-08-19T09:58:08.532Z,24.19
2018-08-19T09:59:08.533Z,24.37
2018-08-19T10:00:08.546Z,24.48
2018-08-19T10:01:08.497Z,24.55
2018-08-19T10:02:08.495Z,24.68
2018-08-19T10:03:08.476Z,24.84
2018-08-19T10:04:08.468Z,25.06
2018-08-19T10:05:08.492Z,25.49
2018-08-19T10:06:08.427Z,27.19
2018-08-19T10:07:08.416Z,27.47
2018-08-19T10:08:08.421Z,26.91
2018-08-19T10:09:09.339Z,26.37
2018-08-19T10:10:17.907Z,27.11
2018-08-19T10:11:08.383Z,27.67
2018-08-19T10:12:08.366Z,27.26
2018-08-19T10:13:15.920Z,26.83
2018-08-19T10:14:08.345Z,26.45
2018-08-19T10:15:08.365Z,26.26
2018-08-19T10:16:20.981Z,25.80
2018-08-19T10:17:08.308Z,26.36
2018-08-19T10:18:08.328Z,27.41
2018-08-19T10:19:08.290Z,27.15
2018-08-19T10:20:08.334Z,27.67
2018-08-19T10:21:08.267Z,27.33
2018-08-19T10:22:08.268Z,27.48
2018-08-19T10:23:08.246Z,27.11
2018-08-19T10:24:08.230Z,26.96
2018-08-19T10:25:08.284Z,26.42
2018-08-19T10:26:08.206Z,25.88
2018-08-19T10:27:08.212Z,27.40
2018-08-19T10:28:15.996Z,27.22
2018-08-19T10:29:08.178Z,26.92
2018-08-19T10:30:08.222Z,26.59
2018-08-19T10:31:08.167Z,26.29
2018-08-19T10:32:08.158Z,26.06
2018-08-19T10:33:08.147Z,26.08
2018-08-19T10:34:08.155Z,26.06
2018-08-19T10:35:08.192Z,27.40
2018-08-19T10:36:08.146Z,28.47
2018-08-19T10:37:16.050Z,29.37
2018-08-19T10:38:08.098Z,30.24
2018-08-19T10:39:08.128Z,30.77
2018-08-19T10:40:08.113Z,30.58
2018-08-19T10:41:08.103Z,29.83
2018-08-19T10:42:08.099Z,29.20
2018-08-19T10:43:08.054Z,30.17
2018-08-19T10:44:08.026Z,30.67
2018-08-19T10:45:08.014Z,31.10
2018-08-19T10:46:08.075Z,29.80
2018-08-19T10:47:07.998Z,29.90
2018-08-19T10:48:07.986Z,29.73
2018-08-19T10:49:07.968Z,28.97
2018-08-19T10:50:07.973Z,28.25
2018-08-19T10:51:08.002Z,27.76
2018-08-19T10:52:17.080Z,27.66
2018-08-19T10:53:07.966Z,27.22
2018-08-19T10:54:07.914Z,26.71
2018-08-19T10:55:07.904Z,26.37
2018-08-19T10:56:07.918Z,26.18
2018-08-19T10:57:07.882Z,25.96
2018-08-19T10:58:07.878Z,26.15
2018-08-19T10:59:07.877Z,26.24
2018-08-19T11:00:07.859Z,26.36
2018-08-19T11:01:21.172Z,26.53
2018-08-19T11:02:07.845Z,26.59
2018-08-19T11:03:07.874Z,26.81
2018-08-19T11:04:16.677Z,26.73
2018-08-19T11:05:07.806Z,26.81
2018-08-19T11:06:07.796Z,26.60
2018-08-19T11:07:16.707Z,26.30
2018-08-19T11:08:07.818Z,26.29
2018-08-19T11:09:07.776Z,27.23
2018-08-19T11:10:15.733Z,29.30
2018-08-19T11:11:07.747Z,30.38
2018-08-19T11:12:07.728Z,31.48
2018-08-19T11:13:15.824Z,31.89
2018-08-19T11:14:07.703Z,32.30
2018-08-19T11:15:07.706Z,32.09
2018-08-19T11:16:07.722Z,31.00
2018-08-19T11:17:07.680Z,29.32
2018-08-19T11:18:07.662Z,28.28
2018-08-19T11:19:16.824Z,27.35
2018-08-19T11:20:07.638Z,27.18
2018-08-19T11:21:07.711Z,27.15
2018-08-19T11:22:07.615Z,27.68
2018-08-19T11:23:07.604Z,28.19
2018-08-19T11:24:07.634Z,29.28
2018-08-19T11:25:19.867Z,30.31
2018-08-19T11:26:07.588Z,30.88
2018-08-19T11:27:07.585Z,30.11
2018-08-19T11:28:15.400Z,29.49
2018-08-19T11:29:07.570Z,29.00
2018-08-19T11:30:07.537Z,28.53
2018-08-19T11:31:15.444Z,28.19
2018-08-19T11:32:07.514Z,27.98
2018-08-19T11:33:07.540Z,28.27
2018-08-19T11:34:21.009Z,29.21
2018-08-19T11:35:07.482Z,29.71
2018-08-19T11:36:07.471Z,29.76
2018-08-19T11:37:07.454Z,30.38
2018-08-19T11:38:07.448Z,30.88
2018-08-19T11:39:07.493Z,31.08
2018-08-19T11:40:07.427Z,31.57
2018-08-19T11:41:07.408Z,31.35
2018-08-19T11:42:07.418Z,31.77
2018-08-19T11:43:15.550Z,32.42
2018-08-19T11:44:07.429Z,32.31
2018-08-19T11:45:07.392Z,32.41
2018-08-19T11:46:07.425Z,31.60
2018-08-19T11:47:07.364Z,31.30
2018-08-19T11:48:07.363Z,31.10
2018-08-19T11:49:07.370Z,31.28
2018-08-19T11:50:07.335Z,31.79
2018-08-19T11:51:07.364Z,31.67
2018-08-19T11:52:07.310Z,31.47
2018-08-19T11:53:07.303Z,31.17
2018-08-19T11:54:07.289Z,31.87
2018-08-19T11:55:07.303Z,32.17
2018-08-19T11:56:07.336Z,32.71
2018-08-19T11:57:07.351Z,32.56
2018-08-19T11:58:15.068Z,32.66
2018-08-19T11:59:07.240Z,32.19
2018-08-19T12:00:07.241Z,31.26
2018-08-19T12:01:16.619Z,29.34
2018-08-19T12:02:07.277Z,28.33
2018-08-19T12:03:07.203Z,28.19
2018-08-19T12:04:07.191Z,28.90
2018-08-19T12:05:07.209Z,29.73
2018-08-19T12:06:07.220Z,30.13
2018-08-19T12:07:07.163Z,31.28
2018-08-19T12:08:07.145Z,32.37
2018-08-19T12:09:07.135Z,32.83
2018-08-19T12:10:15.129Z,32.98
2018-08-19T12:11:07.159Z,33.48
2018-08-19T12:12:07.101Z,33.87
2018-08-19T12:13:14.669Z,32.98
2018-08-19T12:14:07.083Z,32.79
2018-08-19T12:15:07.072Z,32.56
2018-08-19T12:16:16.250Z,31.04
2018-08-19T12:17:07.163Z,30.81
2018-08-19T12:18:07.035Z,31.47
2018-08-19T12:19:15.249Z,32.60
2018-08-19T12:20:07.028Z,32.76
2018-08-19T12:21:07.011Z,33.28
2018-08-19T12:22:16.304Z,33.47
2018-08-19T12:23:06.981Z,33.82
2018-08-19T12:24:07.017Z,33.42
2018-08-19T12:25:14.817Z,33.84
2018-08-19T12:26:06.954Z,34.51
2018-08-19T12:27:06.955Z,34.19
2018-08-19T12:28:14.855Z,34.55
2018-08-19T12:29:06.979Z,34.83
2018-08-19T12:30:06.920Z,34.07
2018-08-19T12:31:06.933Z,32.59
2018-08-19T12:32:06.903Z,32.86
2018-08-19T12:33:07.003Z,33.12
2018-08-19T12:34:14.899Z,32.09
2018-08-19T12:35:06.935Z,32.59
2018-08-19T12:36:06.855Z,31.39
2018-08-19T12:37:20.140Z,32.04
2018-08-19T12:38:06.847Z,31.64
2018-08-19T12:39:06.843Z,32.59
2018-08-19T12:40:06.847Z,33.60
2018-08-19T12:41:06.851Z,33.81
2018-08-19T12:42:06.811Z,33.70
2018-08-19T12:43:16.007Z,33.22
2018-08-19T12:44:06.785Z,33.33
2018-08-19T12:45:06.765Z,33.47
2018-08-19T12:46:16.055Z,33.42
2018-08-19T12:47:06.740Z,33.69
2018-08-19T12:48:06.768Z,32.86
2018-08-19T12:49:14.541Z,32.88
2018-08-19T12:50:06.720Z,32.64
2018-08-19T12:51:06.704Z,32.49
2018-08-19T12:52:16.093Z,32.98